Time;durP1;ratioP1;P1;durP2;ratioP2;P2;SDS_P1;SDS_P2;PMS_P1;PMS_P2;Temp;Humidity;BMP_temperature;BMP_pressure;BME280_temperature;BME280_humidity;BME280_pressure;Samples;Min_cycle;Max_cycle;Signal;HPM_P1;HPM_P2
2022/03/24 00:01:29;;;;;;;12.87;10.53;;;6.30;61.30;;;;;;5070442;28;20368;-75
2022/03/24 00:03:55;;;;;;;15.60;10.90;;;6.40;63.10;;;;;;5071772;28;20282;-74
2022/03/24 00:06:20;;;;;;;20.00;10.93;;;6.30;64.30;;;;;;5071693;28;20628;-74
2022/03/24 00:08:47;;;;;;;18.83;10.83;;;6.20;66.10;;;;;;5071686;28;20276;-74
2022/03/24 00:11:12;;;;;;;15.60;11.33;;;6.20;66.00;;;;;;5069979;28;20658;-74
2022/03/24 00:13:38;;;;;;;18.03;11.10;;;6.10;66.80;;;;;;5070085;28;20456;-74
2022/03/24 00:16:04;;;;;;;15.70;11.37;;;6.10;68.00;;;;;;5071016;28;20265;-73
2022/03/24 00:18:32;;;;;;;15.10;10.13;;;6.00;69.10;;;;;;5071089;28;20192;-73
2022/03/24 00:20:58;;;;;;;17.83;10.97;;;6.00;69.30;;;;;;5070992;28;21375;-72
2022/03/24 00:23:23;;;;;;;18.23;11.40;;;6.10;68.70;;;;;;5070971;28;20421;-73
2022/03/24 00:25:50;;;;;;;18.63;11.33;;;6.10;68.30;;;;;;5071084;28;20447;-73
2022/03/24 00:28:15;;;;;;;16.37;10.97;;;6.10;67.20;;;;;;5070302;28;20187;-73
2022/03/24 00:30:41;;;;;;;16.53;10.50;;;6.10;65.60;;;;;;5070835;28;20444;-73
2022/03/24 00:33:07;;;;;;;18.03;12.23;;;6.10;66.20;;;;;;5070768;28;20183;-73
2022/03/24 00:35:33;;;;;;;17.80;11.13;;;6.10;66.80;;;;;;5070863;28;20184;-73
2022/03/24 00:37:59;;;;;;;15.10;11.13;;;6.10;68.20;;;;;;5070743;28;20928;-73
2022/03/24 00:40:24;;;;;;;16.43;11.17;;;6.00;69.00;;;;;;5070599;28;20207;-73
2022/03/24 00:42:50;;;;;;;22.87;11.40;;;6.00;69.10;;;;;;5070486;28;20827;-73
2022/03/24 00:45:18;;;;;;;19.20;11.50;;;5.90;70.20;;;;;;5070612;28;20179;-73
2022/03/24 00:47:45;;;;;;;16.30;11.90;;;5.90;69.90;;;;;;5070514;28;20183;-73
2022/03/24 00:50:12;;;;;;;20.27;11.90;;;5.70;71.60;;;;;;5069131;28;20539;-73
2022/03/24 00:52:41;;;;;;;18.70;10.80;;;5.60;73.30;;;;;;5070324;28;20434;-73
2022/03/24 00:55:15;;;;;;;21.03;13.33;;;5.60;73.70;;;;;;5070169;28;20425;-73
2022/03/24 00:57:43;;;;;;;16.70;11.97;;;5.60;74.30;;;;;;5070105;28;20416;-73
2022/03/24 01:00:12;;;;;;;19.03;12.97;;;5.50;75.50;;;;;;5070178;28;20472;-73
2022/03/24 01:02:37;;;;;;;17.37;12.43;;;5.40;75.40;;;;;;5069030;28;20423;-73
2022/03/24 01:05:07;;;;;;;16.47;12.50;;;5.40;75.40;;;;;;5070556;28;20420;-74
2022/03/24 01:07:34;;;;;;;17.67;11.67;;;5.40;75.40;;;;;;5068883;28;20445;-73
2022/03/24 01:09:59;;;;;;;15.07;11.50;;;5.40;75.20;;;;;;5070288;28;20440;-73
2022/03/24 01:12:25;;;;;;;18.57;12.20;;;5.30;74.20;;;;;;5068963;28;20672;-73
2022/03/24 01:14:51;;;;;;;20.93;12.40;;;5.40;74.80;;;;;;5070100;28;20191;-72
2022/03/24 01:17:17;;;;;;;17.33;12.20;;;5.20;74.30;;;;;;5070294;28;20230;-73
2022/03/24 01:19:44;;;;;;;18.37;11.90;;;5.20;73.90;;;;;;5069951;28;20214;-73
2022/03/24 01:22:10;;;;;;;18.83;11.50;;;5.20;75.40;;;;;;5070158;28;20466;-73
2022/03/24 01:24:38;;;;;;;18.20;12.00;;;5.20;75.70;;;;;;5069938;28;20532;-74
2022/03/24 01:27:06;;;;;;;23.43;12.93;;;5.30;75.10;;;;;;5069829;28;20497;-72
2022/03/24 01:29:32;;;;;;;18.47;12.60;;;5.20;76.30;;;;;;5070021;28;21015;-74
2022/03/24 01:31:59;;;;;;;18.93;13.13;;;5.10;77.50;;;;;;5068579;28;20794;-74
2022/03/24 01:34:25;;;;;;;20.10;12.43;;;5.00;78.50;;;;;;5069902;28;20444;-74
2022/03/24 01:36:51;;;;;;;19.40;12.30;;;5.00;77.60;;;;;;5068248;28;20437;-73
2022/03/24 01:39:17;;;;;;;16.60;12.60;;;5.00;77.40;;;;;;5068602;28;20433;-73
2022/03/24 01:41:50;;;;;;;19.97;12.83;;;5.00;76.80;;;;;;5069439;28;20200;-72
2022/03/24 01:44:17;;;;;;;21.45;13.95;;;5.20;76.40;;;;;;5069475;28;20413;-72
2022/03/24 01:46:59;;;;;;;20.17;12.13;;;5.00;77.70;;;;;;5069549;28;20180;-72
2022/03/24 01:49:31;;;;;;;19.23;12.43;;;4.90;77.90;;;;;;5069394;28;20816;-72
2022/03/24 01:51:57;;;;;;;22.20;14.00;;;4.80;78.50;;;;;;5069564;28;20546;-73
2022/03/24 01:54:25;;;;;;;24.17;14.07;;;4.80;78.80;;;;;;5067831;28;20429;-72
2022/03/24 01:56:52;;;;;;;22.33;12.50;;;4.80;79.00;;;;;;5069542;28;20420;-73
2022/03/24 01:59:19;;;;;;;23.57;14.50;;;4.80;79.50;;;;;;5069080;28;20441;-73
2022/03/24 02:01:46;;;;;;;20.13;13.60;;;4.80;81.30;;;;;;5068987;28;20417;-73
2022/03/24 02:04:14;;;;;;;21.53;13.50;;;4.70;81.90;;;;;;5068933;28;21248;-74
2022/03/24 02:06:40;;;;;;;21.87;13.83;;;4.60;81.10;;;;;;5068817;28;20426;-74
2022/03/24 02:09:07;;;;;;;26.43;13.40;;;4.60;81.70;;;;;;5068744;28;20953;-75
2022/03/24 02:11:34;;;;;;;17.67;11.73;;;4.60;82.20;;;;;;5068956;28;20460;-74
2022/03/24 02:14:00;;;;;;;17.73;13.05;;;4.50;82.30;;;;;;5069091;28;20953;-74
2022/03/24 02:16:34;;;;;;;20.23;13.07;;;4.50;82.40;;;;;;5069184;28;20324;-74
2022/03/24 02:19:17;;;;;;;18.10;12.67;;;4.40;83.80;;;;;;5069259;28;21240;-73
2022/03/24 02:21:45;;;;;;;18.67;12.77;;;4.30;84.00;;;;;;5069391;28;20421;-74
2022/03/24 02:24:13;;;;;;;24.40;13.43;;;4.20;84.10;;;;;;5069209;28;20414;-74
2022/03/24 02:26:42;;;;;;;32.63;14.80;;;4.20;84.80;;;;;;5069294;28;20418;-74
2022/03/24 02:29:10;;;;;;;23.50;12.80;;;4.20;85.20;;;;;;5068655;28;20963;-74
2022/03/24 02:31:56;;;;;;;20.43;12.80;;;4.20;83.70;;;;;;5069942;28;20431;-74
2022/03/24 02:34:40;;;;;;;18.33;12.80;;;4.20;84.40;;;;;;5068829;28;20435;-74
2022/03/24 02:37:17;;;;;;;19.57;12.23;;;4.20;84.40;;;;;;5067408;28;20437;-75
2022/03/24 02:39:49;;;;;;;17.70;12.48;;;4.10;83.30;;;;;;5068508;28;20457;-75
2022/03/24 02:42:17;;;;;;;19.27;12.53;;;4.10;85.00;;;;;;5068513;28;20283;-74
2022/03/24 02:44:45;;;;;;;18.33;13.87;;;4.10;85.70;;;;;;5068632;28;20417;-74
2022/03/24 02:47:12;;;;;;;21.00;12.53;;;4.00;86.10;;;;;;5068693;28;20421;-74
2022/03/24 02:49:39;;;;;;;19.27;13.50;;;4.00;85.60;;;;;;5068303;28;20435;-74
2022/03/24 02:52:06;;;;;;;22.37;12.03;;;4.00;85.50;;;;;;5070853;28;20420;-74
2022/03/24 02:54:32;;;;;;;18.50;12.32;;;4.00;85.20;;;;;;5071100;28;20436;-74
2022/03/24 02:56:58;;;;;;;19.60;13.23;;;3.90;85.80;;;;;;5072305;28;20241;-73
2022/03/24 02:59:25;;;;;;;18.55;12.93;;;4.00;86.10;;;;;;5072111;28;20444;-75
2022/03/24 03:02:13;;;;;;;19.37;12.37;;;3.90;86.00;;;;;;5072459;28;20233;-73
2022/03/24 03:04:41;;;;;;;20.97;13.20;;;3.90;86.30;;;;;;5072538;28;20454;-74
2022/03/24 03:07:07;;;;;;;23.80;12.93;;;3.80;86.80;;;;;;5072554;28;20420;-75
2022/03/24 03:09:37;;;;;;;20.63;12.10;;;3.90;85.60;;;;;;5072619;28;20462;-75
2022/03/24 03:12:03;;;;;;;21.95;13.38;;;4.00;83.90;;;;;;5072328;28;20860;-73
2022/03/24 03:14:31;;;;;;;23.38;13.70;;;4.10;84.70;;;;;;5070882;28;20248;-74
2022/03/24 03:16:59;;;;;;;28.40;12.75;;;4.10;86.90;;;;;;5070830;28;20268;-74
2022/03/24 03:19:25;;;;;;;21.10;14.33;;;4.00;87.20;;;;;;5071795;28;20216;-74
2022/03/24 03:21:51;;;;;;;18.20;12.57;;;4.00;87.10;;;;;;5071945;28;20412;-73
2022/03/24 03:24:18;;;;;;;21.20;14.00;;;4.10;87.90;;;;;;5071915;28;20408;-73
2022/03/24 03:26:44;;;;;;;22.23;14.00;;;4.10;88.20;;;;;;5071907;28;20179;-73
2022/03/24 03:29:11;;;;;;;19.03;13.20;;;4.10;89.10;;;;;;5070217;28;20491;-73
2022/03/24 03:31:37;;;;;;;23.30;14.10;;;4.00;89.10;;;;;;5070132;28;20459;-73
2022/03/24 03:34:07;;;;;;;25.27;14.85;;;4.00;89.90;;;;;;5071485;28;20426;-73
2022/03/24 03:36:34;;;;;;;21.90;14.87;;;4.00;90.30;;;;;;5070329;28;20271;-73
2022/03/24 03:39:00;;;;;;;23.10;13.47;;;3.90;90.60;;;;;;5071424;28;20489;-74
2022/03/24 03:41:28;;;;;;;26.33;13.40;;;3.80;91.00;;;;;;5071366;28;20490;-74
2022/03/24 03:43:54;;;;;;;23.87;14.80;;;3.80;90.90;;;;;;5069982;28;20447;-74
2022/03/24 03:46:20;;;;;;;24.30;14.40;;;3.70;91.20;;;;;;5071508;28;20871;-75
2022/03/24 03:48:47;;;;;;;23.83;14.17;;;3.70;90.80;;;;;;5053387;28;20471;-74
2022/03/24 03:51:13;;;;;;;23.47;14.13;;;3.60;90.60;;;;;;5071345;28;20180;-74
2022/03/24 03:53:39;;;;;;;20.57;13.20;;;3.60;90.40;;;;;;5071316;28;20842;-75
2022/03/24 03:56:07;;;;;;;21.67;13.98;;;3.70;90.40;;;;;;5071330;28;20422;-73
2022/03/24 03:58:35;;;;;;;22.60;13.80;;;3.60;90.60;;;;;;5071208;28;20206;-74
2022/03/24 04:01:02;;;;;;;18.80;13.13;;;3.60;91.00;;;;;;5070925;28;20467;-75
2022/03/24 04:03:33;;;;;;;24.23;14.10;;;3.50;91.20;;;;;;5068602;28;20420;-74
2022/03/24 04:06:00;;;;;;;25.70;17.00;;;3.60;91.20;;;;;;5071095;28;20182;-73
2022/03/24 04:08:31;;;;;;;39.92;20.20;;;3.60;90.90;;;;;;5071156;28;21281;-73
2022/03/24 04:10:57;;;;;;;27.57;16.70;;;3.50;91.60;;;;;;5070931;28;20229;-73
2022/03/24 04:13:23;;;;;;;23.05;14.23;;;3.60;91.40;;;;;;5071255;28;20936;-73
2022/03/24 04:15:51;;;;;;;24.77;14.20;;;3.50;91.50;;;;;;5069957;28;20264;-73
2022/03/24 04:18:17;;;;;;;20.88;13.77;;;3.40;91.70;;;;;;5069869;28;20432;-73
2022/03/24 04:20:43;;;;;;;27.27;13.73;;;3.40;92.20;;;;;;5070707;28;20855;-73
2022/03/24 04:23:09;;;;;;;20.65;13.85;;;3.40;91.90;;;;;;5070814;28;20417;-73
2022/03/24 04:25:36;;;;;;;21.17;13.07;;;3.40;91.60;;;;;;5070932;28;20258;-72
2022/03/24 04:28:03;;;;;;;24.00;13.57;;;3.40;91.60;;;;;;5071098;28;20437;-73
2022/03/24 04:30:29;;;;;;;23.02;14.00;;;3.40;92.30;;;;;;5071497;28;20209;-73
2022/03/24 04:32:55;;;;;;;24.85;14.80;;;3.30;92.30;;;;;;5069781;28;20178;-73
2022/03/24 04:35:21;;;;;;;25.23;14.50;;;3.30;92.60;;;;;;5069656;28;20193;-72
2022/03/24 04:37:48;;;;;;;25.42;13.00;;;3.20;92.70;;;;;;5071067;28;20182;-72
2022/03/24 04:40:17;;;;;;;22.45;14.48;;;3.20;92.80;;;;;;5070949;28;20217;-72
2022/03/24 04:42:45;;;;;;;19.65;13.32;;;3.20;92.70;;;;;;5069450;28;20186;-73
2022/03/24 04:45:10;;;;;;;21.83;14.82;;;3.10;92.60;;;;;;5070911;28;20185;-75
2022/03/24 04:47:37;;;;;;;27.10;16.20;;;3.20;93.10;;;;;;5070798;28;20230;-74
2022/03/24 04:50:04;;;;;;;31.13;16.33;;;3.10;93.30;;;;;;5069412;28;20451;-72
2022/03/24 04:52:30;;;;;;;32.83;21.58;;;3.00;93.30;;;;;;5068971;28;20480;-73
2022/03/24 04:54:57;;;;;;;33.83;23.03;;;3.00;93.50;;;;;;5070548;28;20191;-73
2022/03/24 04:57:22;;;;;;;29.35;17.55;;;3.00;93.70;;;;;;5070413;28;20933;-74
2022/03/24 04:59:48;;;;;;;21.27;13.70;;;3.00;93.70;;;;;;5069970;28;20351;-73
2022/03/24 05:02:15;;;;;;;22.93;14.33;;;2.90;94.20;;;;;;5070104;28;20272;-74
2022/03/24 05:04:44;;;;;;;21.42;14.25;;;2.80;93.90;;;;;;5068554;28;20197;-74
2022/03/24 05:07:11;;;;;;;22.40;14.80;;;2.80;94.00;;;;;;5068329;28;20351;-75
2022/03/24 05:09:37;;;;;;;23.30;14.52;;;2.80;93.80;;;;;;5068245;28;20210;-75
2022/03/24 05:12:04;;;;;;;24.38;14.25;;;2.80;93.90;;;;;;5069601;28;20205;-75
2022/03/24 05:14:31;;;;;;;23.25;14.10;;;2.80;93.90;;;;;;5069222;28;20671;-75
2022/03/24 05:16:57;;;;;;;22.83;13.85;;;2.80;93.80;;;;;;5067964;28;20275;-75
2022/03/24 05:19:23;;;;;;;21.50;14.45;;;2.80;94.10;;;;;;5067919;28;20214;-75
2022/03/24 05:21:49;;;;;;;26.33;16.63;;;2.80;93.80;;;;;;5067824;28;20191;-75
2022/03/24 05:24:14;;;;;;;36.33;19.40;;;2.80;94.20;;;;;;5067869;28;20177;-74
2022/03/24 05:26:41;;;;;;;31.27;20.03;;;2.80;94.10;;;;;;5067687;28;20182;-74
2022/03/24 05:29:07;;;;;;;28.83;16.70;;;2.80;94.40;;;;;;5067760;28;20188;-75
2022/03/24 05:31:32;;;;;;;27.05;14.10;;;2.90;94.70;;;;;;5067738;28;20192;-75
2022/03/24 05:33:58;;;;;;;25.47;14.47;;;2.90;94.60;;;;;;5067572;28;20182;-75
2022/03/24 05:36:24;;;;;;;27.33;16.87;;;3.00;94.80;;;;;;5067713;28;20192;-75
2022/03/24 05:38:51;;;;;;;24.83;15.03;;;3.00;95.00;;;;;;5066166;28;20184;-75
2022/03/24 05:41:17;;;;;;;20.30;13.43;;;3.10;95.20;;;;;;5049741;28;20715;-75
2022/03/24 05:44:02;;;;;;;24.00;15.10;;;3.20;94.80;;;;;;5066094;28;20188;-75
2022/03/24 05:46:30;;;;;;;23.45;15.07;;;3.20;94.80;;;;;;5052017;28;20258;-75
2022/03/24 05:48:55;;;;;;;22.67;14.65;;;3.20;94.60;;;;;;5066228;28;20265;-75
2022/03/24 05:51:21;;;;;;;22.50;14.97;;;3.20;94.80;;;;;;5067684;28;20727;-74
2022/03/24 05:53:46;;;;;;;21.10;14.13;;;3.20;95.40;;;;;;5067644;28;20197;-75
2022/03/24 05:56:12;;;;;;;31.97;14.97;;;3.20;95.10;;;;;;5049469;28;20732;-75
2022/03/24 05:58:38;;;;;;;23.37;14.00;;;3.30;95.40;;;;;;5067671;28;20272;-74
2022/03/24 06:01:05;;;;;;;27.63;15.00;;;3.30;95.40;;;;;;5066423;28;20216;-75
2022/03/24 06:03:31;;;;;;;26.70;14.90;;;3.30;95.30;;;;;;5050040;28;20236;-74
2022/03/24 06:05:59;;;;;;;28.63;14.48;;;3.40;95.20;;;;;;5067883;28;20183;-75
2022/03/24 06:08:25;;;;;;;28.33;16.55;;;3.50;95.50;;;;;;5067708;28;20211;-73
2022/03/24 06:10:51;;;;;;;25.00;14.03;;;3.60;95.60;;;;;;5067986;28;20709;-75
2022/03/24 06:13:17;;;;;;;28.87;14.97;;;3.90;95.80;;;;;;5067197;28;20637;-74
2022/03/24 06:15:43;;;;;;;36.57;14.87;;;4.50;94.30;;;;;;5066716;28;20490;-73
2022/03/24 06:18:09;;;;;;;28.57;16.63;;;5.40;92.80;;;;;;5049752;28;20804;-74
2022/03/24 06:20:34;;;;;;;25.20;13.53;;;6.40;89.90;;;;;;5065771;28;20203;-74
2022/03/24 06:23:00;;;;;;;32.00;16.90;;;7.10;85.10;;;;;;5065584;28;20183;-74
2022/03/24 06:25:26;;;;;;;25.60;15.60;;;7.60;81.30;;;;;;5065134;28;20194;-75
2022/03/24 06:27:51;;;;;;;22.80;15.60;;;8.00;79.70;;;;;;5067217;28;20262;-74
2022/03/24 06:30:19;;;;;;;26.47;16.30;;;8.20;78.20;;;;;;5067423;28;20456;-74
2022/03/24 06:32:45;;;;;;;29.50;17.20;;;8.30;76.50;;;;;;5066458;28;20179;-74
2022/03/24 06:35:11;;;;;;;39.97;24.80;;;8.40;74.40;;;;;;5067766;28;21091;-76
2022/03/24 06:37:40;;;;;;;37.70;22.60;;;8.40;73.50;;;;;;5049944;28;20461;-74
2022/03/24 06:40:08;;;;;;;28.30;17.57;;;8.70;72.70;;;;;;5067596;28;20469;-74
2022/03/24 06:42:34;;;;;;;30.80;18.63;;;9.00;71.20;;;;;;5067877;28;20906;-76
2022/03/24 06:45:00;;;;;;;28.03;18.63;;;9.30;69.90;;;;;;5066273;28;20419;-74
2022/03/24 06:47:25;;;;;;;25.20;17.50;;;9.50;69.00;;;;;;5067711;28;20204;-74
2022/03/24 06:49:51;;;;;;;30.20;17.57;;;9.70;69.60;;;;;;5068037;28;20206;-76
2022/03/24 06:52:17;;;;;;;38.00;19.37;;;9.70;69.00;;;;;;5066591;28;20183;-74
2022/03/24 06:54:42;;;;;;;33.53;22.70;;;9.90;68.40;;;;;;5067983;28;20766;-75
2022/03/24 06:57:08;;;;;;;34.97;22.13;;;10.00;65.70;;;;;;5067174;28;20185;-74
2022/03/24 06:59:34;;;;;;;39.10;23.80;;;10.30;67.20;;;;;;5067278;28;20203;-76
2022/03/24 07:02:02;;;;;;;28.50;19.70;;;10.00;67.50;;;;;;5068146;28;20441;-73
2022/03/24 07:04:28;;;;;;;32.53;20.03;;;9.90;66.70;;;;;;5068834;28;20175;-75
2022/03/24 07:06:53;;;;;;;34.20;20.23;;;9.90;66.90;;;;;;5069054;28;20817;-75
2022/03/24 07:09:19;;;;;;;32.63;21.20;;;9.80;67.50;;;;;;5068050;28;20196;-75
2022/03/24 07:11:44;;;;;;;31.27;19.73;;;9.90;67.80;;;;;;5066704;28;20784;-75
2022/03/24 07:14:10;;;;;;;27.43;17.70;;;10.00;66.70;;;;;;5068280;28;20191;-74
2022/03/24 07:16:36;;;;;;;31.13;18.63;;;9.90;67.20;;;;;;5066704;28;20191;-75
2022/03/24 07:19:03;;;;;;;28.90;19.13;;;10.00;66.30;;;;;;5068014;28;20821;-75
2022/03/24 07:21:29;;;;;;;28.37;17.57;;;10.00;65.60;;;;;;5066516;28;20752;-75
2022/03/24 07:23:55;;;;;;;26.83;18.57;;;10.00;66.10;;;;;;5066572;28;20445;-75
2022/03/24 07:26:20;;;;;;;25.70;17.60;;;10.40;65.10;;;;;;5066531;28;20892;-75
2022/03/24 07:28:48;;;;;;;26.60;17.40;;;10.50;63.90;;;;;;5068075;28;20561;-75
2022/03/24 07:31:16;;;;;;;29.50;18.00;;;10.80;63.50;;;;;;5066656;28;20179;-75
2022/03/24 07:33:43;;;;;;;30.53;18.63;;;11.20;63.20;;;;;;5068094;28;20459;-75
2022/03/24 07:36:09;;;;;;;29.70;17.90;;;11.60;61.50;;;;;;5050789;28;20429;-75
2022/03/24 07:38:39;;;;;;;27.37;17.57;;;11.90;59.10;;;;;;5072375;28;20903;-75
2022/03/24 07:41:09;;;;;;;27.43;18.90;;;12.20;58.70;;;;;;5080705;28;20470;-75
2022/03/24 07:43:34;;;;;;;41.73;21.30;;;12.40;58.60;;;;;;5059183;28;20430;-75
2022/03/24 07:46:00;;;;;;;33.90;22.30;;;12.20;58.10;;;;;;5070995;28;20412;-75
2022/03/24 07:48:26;;;;;;;32.97;20.57;;;12.10;58.10;;;;;;5069224;28;20253;-76
2022/03/24 07:50:54;;;;;;;38.87;19.40;;;12.10;58.80;;;;;;5068751;28;20291;-76
2022/03/24 07:53:42;;;;;;;25.63;16.40;;;12.10;56.30;;;;;;5068776;28;20212;-77
2022/03/24 07:56:08;;;;;;;23.73;17.10;;;12.30;57.20;;;;;;5068943;28;20429;-75
2022/03/24 07:58:34;;;;;;;27.93;18.00;;;12.50;55.00;;;;;;5069117;28;20422;-75
2022/03/24 08:01:00;;;;;;;26.53;16.30;;;12.70;57.00;;;;;;5070204;28;20214;-76
2022/03/24 08:03:26;;;;;;;26.53;17.73;;;12.60;55.80;;;;;;5070655;28;20441;-75
2022/03/24 08:05:52;;;;;;;27.67;18.07;;;12.30;58.80;;;;;;5070466;28;20917;-76
2022/03/24 08:08:19;;;;;;;29.40;17.23;;;12.20;58.50;;;;;;5070631;28;20417;-76
2022/03/24 08:10:46;;;;;;;24.07;16.33;;;12.30;59.10;;;;;;5069991;28;20458;-75
2022/03/24 08:13:15;;;;;;;25.30;17.23;;;12.50;58.40;;;;;;5070355;28;20409;-75
2022/03/24 08:15:42;;;;;;;31.83;18.47;;;12.70;57.80;;;;;;5070070;28;20912;-76
2022/03/24 08:18:09;;;;;;;35.33;19.93;;;12.80;57.70;;;;;;5070162;28;20878;-75
2022/03/24 08:20:36;;;;;;;33.53;21.33;;;12.90;57.80;;;;;;5069720;28;21316;-76
2022/03/24 08:23:03;;;;;;;35.80;22.60;;;13.00;56.00;;;;;;5068809;28;20443;-76
2022/03/24 08:25:29;;;;;;;37.80;20.67;;;13.00;56.70;;;;;;5069875;28;20432;-76
2022/03/24 08:27:55;;;;;;;27.90;18.43;;;13.10;56.70;;;;;;5070109;28;20921;-75
2022/03/24 08:30:21;;;;;;;31.40;19.07;;;13.50;56.10;;;;;;5069708;28;20448;-75
2022/03/24 08:32:47;;;;;;;33.53;18.60;;;13.70;55.80;;;;;;5068307;28;20211;-75
2022/03/24 08:35:12;;;;;;;30.20;19.00;;;13.70;53.80;;;;;;5069828;28;20235;-75
2022/03/24 08:37:38;;;;;;;26.13;18.43;;;14.10;54.20;;;;;;5069727;28;20179;-75
2022/03/24 08:40:05;;;;;;;29.63;19.40;;;14.50;54.10;;;;;;5069458;28;20249;-76
2022/03/24 08:42:30;;;;;;;26.50;19.00;;;14.70;53.20;;;;;;5069067;28;20209;-75
2022/03/24 08:44:56;;;;;;;26.53;18.70;;;14.80;53.30;;;;;;5068898;28;20455;-75
2022/03/24 08:47:22;;;;;;;27.40;18.87;;;15.10;53.60;;;;;;5069641;28;20183;-76
2022/03/24 08:49:48;;;;;;;34.30;18.83;;;15.40;53.80;;;;;;5068570;28;20301;-75
2022/03/24 08:52:14;;;;;;;32.10;19.67;;;15.60;52.20;;;;;;5050940;28;20202;-75
2022/03/24 08:54:39;;;;;;;26.13;18.13;;;15.90;51.20;;;;;;5069319;28;20413;-75
2022/03/24 08:57:05;;;;;;;29.87;18.30;;;16.20;50.60;;;;;;5067512;28;20251;-75
2022/03/24 08:59:31;;;;;;;28.40;19.07;;;16.70;50.00;;;;;;5068266;28;20207;-75
2022/03/24 09:01:58;;;;;;;30.13;18.50;;;16.80;50.70;;;;;;5067419;28;20547;-75
2022/03/24 09:04:26;;;;;;;37.17;20.30;;;17.10;50.20;;;;;;5068562;28;20458;-75
2022/03/24 09:06:53;;;;;;;28.67;20.90;;;17.60;47.70;;;;;;5068518;28;20442;-75
2022/03/24 09:09:22;;;;;;;26.20;18.73;;;17.80;45.20;;;;;;5068636;28;20928;-76
2022/03/24 09:11:48;;;;;;;30.03;20.13;;;18.10;44.70;;;;;;5067199;28;20451;-75
2022/03/24 09:14:15;;;;;;;24.70;17.70;;;18.50;43.90;;;;;;5067270;28;20858;-75
2022/03/24 09:16:41;;;;;;;30.57;20.03;;;18.70;43.70;;;;;;5067948;28;20919;-76
2022/03/24 09:19:07;;;;;;;26.23;18.70;;;18.90;42.50;;;;;;5068071;28;20456;-76
2022/03/24 09:21:32;;;;;;;31.00;20.17;;;19.50;44.20;;;;;;5068499;28;20203;-76
2022/03/24 09:23:58;;;;;;;28.43;20.40;;;19.80;42.20;;;;;;5067327;28;20185;-75
2022/03/24 09:26:24;;;;;;;28.77;19.97;;;20.10;40.40;;;;;;5068542;28;20715;-76
2022/03/24 09:28:52;;;;;;;35.13;20.40;;;20.50;39.20;;;;;;5066647;28;20427;-76
2022/03/24 09:31:19;;;;;;;27.37;20.20;;;20.70;37.50;;;;;;5068705;28;20511;-76
2022/03/24 09:33:44;;;;;;;27.23;20.10;;;21.00;37.20;;;;;;5068603;28;20778;-76
2022/03/24 09:36:11;;;;;;;32.60;20.30;;;20.80;37.70;;;;;;5067918;28;20421;-76
2022/03/24 09:38:37;;;;;;;30.03;20.90;;;21.30;37.20;;;;;;5068068;28;20186;-77
2022/03/24 09:41:05;;;;;;;25.37;20.10;;;21.60;38.00;;;;;;5067916;28;20917;-76
2022/03/24 09:43:34;;;;;;;27.20;20.70;;;21.70;35.80;;;;;;5068521;28;20434;-76
2022/03/24 09:46:01;;;;;;;33.20;21.73;;;21.80;35.30;;;;;;5068484;28;20794;-76
2022/03/24 09:48:27;;;;;;;30.27;20.87;;;21.80;36.40;;;;;;5068143;28;20464;-75
2022/03/24 09:50:54;;;;;;;32.73;20.60;;;21.90;36.60;;;;;;5068345;28;20440;-76
2022/03/24 09:53:20;;;;;;;30.27;20.87;;;22.20;34.00;;;;;;5068384;28;20181;-76
2022/03/24 09:55:48;;;;;;;29.97;21.60;;;22.30;34.10;;;;;;5068290;28;20856;-76
2022/03/24 09:58:13;;;;;;;28.57;22.37;;;22.40;34.20;;;;;;5068329;28;20464;-77
2022/03/24 10:00:40;;;;;;;24.20;18.87;;;22.50;34.10;;;;;;5067428;28;20504;-76
2022/03/24 10:03:14;;;;;;;28.30;20.57;;;22.60;32.90;;;;;;5068387;28;20345;-76
2022/03/24 10:05:57;;;;;;;24.13;18.63;;;22.90;31.00;;;;;;5067237;28;20424;-76
2022/03/24 10:08:23;;;;;;;24.50;19.17;;;23.30;31.10;;;;;;5067627;28;20428;-76
2022/03/24 10:10:48;;;;;;;24.80;19.37;;;23.20;31.40;;;;;;5069108;28;20451;-77
2022/03/24 10:13:24;;;;;;;22.67;19.10;;;23.40;32.00;;;;;;5067540;28;20424;-76
2022/03/24 10:15:50;;;;;;;29.13;21.93;;;23.40;33.20;;;;;;5067491;28;21068;-77
2022/03/24 10:18:16;;;;;;;28.93;21.43;;;23.50;32.70;;;;;;5069565;28;20500;-76
2022/03/24 10:20:42;;;;;;;25.00;20.00;;;23.50;32.30;;;;;;5066473;28;20231;-77
2022/03/24 10:23:08;;;;;;;23.53;18.70;;;23.20;32.00;;;;;;5066647;28;20420;-77
2022/03/24 10:25:37;;;;;;;25.90;20.57;;;22.60;32.10;;;;;;5067977;28;20175;-77
2022/03/24 10:28:08;;;;;;;27.83;18.73;;;23.10;32.60;;;;;;5068038;28;20171;-77
2022/03/24 10:30:54;;;;;;;25.40;19.80;;;23.40;32.80;;;;;;5066860;28;20813;-76
2022/03/24 10:33:45;;;;;;;26.03;19.10;;;23.60;32.30;;;;;;5068085;28;20820;-78
2022/03/24 10:36:12;;;;;;;22.43;18.57;;;23.70;33.20;;;;;;5068527;28;20429;-78
2022/03/24 10:38:49;;;;;;;25.33;19.03;;;23.90;33.90;;;;;;5068131;28;20513;-79
2022/03/24 10:41:25;;;;;;;25.23;19.63;;;23.90;32.40;;;;;;5067138;28;21031;-76
2022/03/24 10:43:57;;;;;;;24.13;20.10;;;24.20;32.70;;;;;;5068406;28;20416;-76
2022/03/24 10:46:27;;;;;;;30.93;20.80;;;24.10;31.60;;;;;;5067644;28;20848;-77
2022/03/24 10:48:53;;;;;;;23.73;19.93;;;23.90;31.20;;;;;;5066481;28;20926;-76
2022/03/24 10:51:33;;;;;;;24.33;19.70;;;24.10;30.90;;;;;;5067655;28;20415;-76
2022/03/24 10:54:19;;;;;;;25.50;19.70;;;24.70;31.10;;;;;;5067200;28;20463;-77
2022/03/24 10:57:12;;;;;;;29.77;20.40;;;24.40;31.90;;;;;;5066906;28;20462;-77
2022/03/24 10:59:54;;;;;;;22.93;19.13;;;24.50;31.90;;;;;;5065207;28;20524;-76
2022/03/24 11:02:21;;;;;;;22.40;19.33;;;24.30;30.00;;;;;;5066864;28;20934;-77
2022/03/24 11:04:47;;;;;;;23.13;18.83;;;24.50;30.40;;;;;;5066851;28;21017;-76
2022/03/24 11:07:12;;;;;;;25.47;19.00;;;24.40;31.40;;;;;;5067682;28;20857;-76
2022/03/24 11:09:38;;;;;;;28.13;18.93;;;24.60;30.50;;;;;;5066945;28;20480;-75
2022/03/24 11:12:31;;;;;;;30.33;20.53;;;24.70;31.00;;;;;;5069221;28;20196;-76
2022/03/24 11:15:02;;;;;;;22.70;18.80;;;24.80;30.50;;;;;;5070823;28;20394;-76
2022/03/24 11:17:39;;;;;;;23.93;18.40;;;24.70;30.20;;;;;;5068953;28;20921;-76
2022/03/24 11:20:14;;;;;;;24.23;19.10;;;24.90;29.60;;;;;;5068703;28;20467;-76
2022/03/24 11:22:55;;;;;;;21.50;17.90;;;24.90;30.00;;;;;;5070433;28;20412;-78
2022/03/24 11:25:21;;;;;;;27.07;20.20;;;24.90;30.40;;;;;;5068921;28;20748;-78
2022/03/24 11:27:49;;;;;;;22.10;18.60;;;24.90;29.40;;;;;;5070022;28;20868;-78
2022/03/24 11:30:15;;;;;;;33.23;18.87;;;24.80;29.60;;;;;;5070827;28;20460;-79
2022/03/24 11:32:44;;;;;;;27.17;20.57;;;24.80;29.20;;;;;;5071741;28;20461;-78
2022/03/24 11:35:11;;;;;;;26.03;19.67;;;24.50;28.90;;;;;;5070982;28;20514;-78
2022/03/24 11:37:37;;;;;;;26.43;19.67;;;24.80;29.00;;;;;;5071373;28;20422;-79
2022/03/24 11:40:07;;;;;;;26.10;19.10;;;24.90;29.20;;;;;;5071062;28;21064;-78
2022/03/24 11:42:38;;;;;;;27.73;19.13;;;25.00;29.90;;;;;;5070945;28;20420;-76
2022/03/24 11:45:13;;;;;;;31.87;17.90;;;25.20;29.50;;;;;;5070825;28;20413;-78
2022/03/24 11:48:07;;;;;;;22.23;18.70;;;25.20;28.80;;;;;;5070846;28;21222;-78
2022/03/24 11:50:38;;;;;;;25.00;17.87;;;25.20;27.50;;;;;;5070853;28;20930;-78
2022/03/24 11:53:19;;;;;;;25.07;18.10;;;25.40;26.50;;;;;;5069674;28;20800;-78
2022/03/24 11:56:03;;;;;;;22.10;17.07;;;25.40;27.50;;;;;;5069649;28;20796;-78
2022/03/24 11:58:54;;;;;;;19.97;16.20;;;24.90;26.60;;;;;;5070070;28;20574;-78
2022/03/24 12:01:19;;;;;;;26.63;16.70;;;24.90;25.30;;;;;;5060653;28;20974;-77
2022/03/24 12:04:10;;;;;;;20.23;16.73;;;25.00;25.60;;;;;;5071769;28;20434;-77
2022/03/24 12:06:41;;;;;;;20.77;17.73;;;25.50;26.20;;;;;;5070312;28;20201;-77
2022/03/24 12:09:15;;;;;;;22.17;18.13;;;25.60;25.10;;;;;;5070689;28;21151;-77
2022/03/24 12:11:46;;;;;;;19.53;16.70;;;25.40;25.70;;;;;;5069988;28;20434;-77
2022/03/24 12:14:33;;;;;;;18.60;15.50;;;25.50;25.10;;;;;;5052090;28;20451;-79
2022/03/24 12:17:31;;;;;;;24.90;17.03;;;25.70;24.60;;;;;;5065426;28;20444;-78
2022/03/24 12:20:20;;;;;;;17.87;15.97;;;25.60;24.90;;;;;;5067881;28;21074;-78
2022/03/24 12:22:47;;;;;;;17.60;15.10;;;25.60;25.40;;;;;;5065819;28;20522;-77
2022/03/24 12:25:12;;;;;;;20.27;15.43;;;25.50;25.00;;;;;;5069986;28;20424;-79
2022/03/24 12:27:58;;;;;;;19.40;16.33;;;25.70;24.60;;;;;;5068749;28;20449;-77
2022/03/24 12:30:24;;;;;;;21.33;16.00;;;25.60;24.10;;;;;;5071421;28;20208;-79
2022/03/24 12:33:07;;;;;;;19.50;15.87;;;25.50;24.80;;;;;;5072344;28;20421;-79
2022/03/24 12:35:59;;;;;;;18.07;14.93;;;25.40;24.70;;;;;;5070553;28;20427;-78
2022/03/24 12:38:32;;;;;;;20.90;16.30;;;25.40;25.30;;;;;;5068123;28;20477;-78
2022/03/24 12:41:17;;;;;;;21.40;16.90;;;25.20;25.60;;;;;;5068822;28;20516;-75